Terminal Aerodrome Forecast
Issued by NWS Caribou, ME

Home | Current Version | Previous Version | Text Only | Print | Product List | Glossary On
Versions: 1 2 3 4 5 6 7 8 9 10 11 12 13 14
000
FTUS41 KCAR 271735
TAFCAR
TAF
KCAR 271735Z 2718/2818 18007KT P6SM OVC050
     FM272100 18006KT P6SM OVC060
      TEMPO 2721/2723 2SM +TSRA OVC025CB
     FM280000 17004KT 3SM +SHRA SCT015 OVC035
     FM280300 16004KT 6SM -SHRA OVC010
     FM280700 15004KT 3SM -SHRA OVC007=

USA.gov is the U.S. government's official web portal to all federal, state and local government web resources and services.